Time;durP1;ratioP1;P1;durP2;ratioP2;P2;SDS_P1;SDS_P2;PMS_P1;PMS_P2;Temp;Humidity;BMP_temperature;BMP_pressure;BME280_temperature;BME280_humidity;BME280_pressure;Samples;Min_cycle;Max_cycle;Signal;HPM_P1;HPM_P2
2022/12/21 00:00:38;;;;;;;16.20;8.90;;;6.60;99.90;;;;;;6091102;23;20413;-60
2022/12/21 00:03:05;;;;;;;13.03;8.57;;;6.60;99.90;;;;;;6092112;23;20460;-61
2022/12/21 00:05:40;;;;;;;17.40;9.80;;;6.50;99.90;;;;;;6084022;23;20412;-59
2022/12/21 00:08:07;;;;;;;21.70;10.47;;;6.50;99.90;;;;;;6093160;23;20407;-63
2022/12/21 00:10:37;;;;;;;22.80;11.10;;;6.50;99.90;;;;;;6093518;23;20464;-61
2022/12/21 00:13:04;;;;;;;22.07;11.10;;;6.50;99.90;;;;;;6093643;23;20555;-60
2022/12/21 00:15:41;;;;;;;16.13;9.20;;;6.50;99.90;;;;;;6093255;23;20417;-61
2022/12/21 00:18:13;;;;;;;20.73;9.47;;;6.40;99.90;;;;;;6092896;23;20400;-63
2022/12/21 00:20:57;;;;;;;24.67;12.47;;;6.40;99.90;;;;;;6093373;23;20468;-61
2022/12/21 00:23:24;;;;;;;22.40;10.83;;;6.40;99.90;;;;;;6092631;23;20412;-60
2022/12/21 00:25:51;;;;;;;17.10;8.67;;;6.30;99.90;;;;;;6093692;23;20408;-60
2022/12/21 00:28:19;;;;;;;22.87;11.07;;;6.30;99.90;;;;;;6094290;23;20389;-57
2022/12/21 00:30:47;;;;;;;19.53;9.67;;;6.30;99.90;;;;;;6093185;23;20710;-59
2022/12/21 00:33:21;;;;;;;17.80;8.73;;;6.20;99.90;;;;;;6093702;23;20404;-63
2022/12/21 00:35:54;;;;;;;16.17;9.20;;;6.20;99.90;;;;;;6093424;23;20393;-62
2022/12/21 00:38:21;;;;;;;22.20;10.00;;;6.20;99.90;;;;;;6092458;23;20435;-63
2022/12/21 00:40:59;;;;;;;19.50;9.30;;;6.20;99.90;;;;;;6093174;23;20416;-59
2022/12/21 00:43:32;;;;;;;22.83;9.97;;;6.30;99.90;;;;;;6093317;23;20425;-62
2022/12/21 00:46:01;;;;;;;19.57;10.67;;;6.30;99.90;;;;;;6093419;23;20389;-58
2022/12/21 00:48:29;;;;;;;27.13;11.97;;;6.30;99.90;;;;;;6094260;23;20486;-60
2022/12/21 00:51:04;;;;;;;22.00;10.43;;;6.20;99.90;;;;;;6085433;23;20393;-60
2022/12/21 00:53:31;;;;;;;17.73;9.47;;;6.20;99.90;;;;;;6085096;23;20402;-61
2022/12/21 00:56:01;;;;;;;23.60;10.20;;;6.20;99.90;;;;;;6093815;23;20409;-59
2022/12/21 00:58:29;;;;;;;26.40;11.10;;;6.20;99.90;;;;;;6093566;23;20413;-61
2022/12/21 01:00:59;;;;;;;23.27;9.37;;;6.20;99.90;;;;;;6093512;23;20416;-57
2022/12/21 01:03:28;;;;;;;23.23;9.53;;;6.20;99.90;;;;;;6093125;23;20404;-60
2022/12/21 01:05:55;;;;;;;19.40;9.63;;;6.20;99.90;;;;;;6092820;23;20448;-61
2022/12/21 01:08:24;;;;;;;19.57;10.07;;;6.20;99.90;;;;;;6093679;23;20405;-60
2022/12/21 01:10:58;;;;;;;21.83;10.07;;;6.20;99.90;;;;;;6092713;23;20443;-58
2022/12/21 01:13:25;;;;;;;18.97;10.53;;;6.20;99.90;;;;;;6093369;23;20401;-58
2022/12/21 01:15:54;;;;;;;22.03;11.57;;;6.20;99.90;;;;;;6093425;23;20440;-61
2022/12/21 01:18:24;;;;;;;24.73;9.97;;;6.20;99.90;;;;;;6087285;23;20396;-60
2022/12/21 01:20:54;;;;;;;23.13;9.40;;;6.20;99.90;;;;;;6093882;23;20489;-58
2022/12/21 01:23:23;;;;;;;22.93;9.63;;;6.30;99.90;;;;;;6094302;23;20440;-53
2022/12/21 01:25:51;;;;;;;19.87;10.30;;;6.30;99.90;;;;;;6094107;23;20424;-63
2022/12/21 01:28:18;;;;;;;25.60;12.07;;;6.30;99.90;;;;;;6092944;23;20460;-62
2022/12/21 01:30:45;;;;;;;23.03;10.80;;;6.30;99.90;;;;;;6093309;23;20396;-61
2022/12/21 01:33:15;;;;;;;18.27;10.40;;;6.10;99.90;;;;;;6092791;23;20447;-61
2022/12/21 01:35:43;;;;;;;21.53;10.80;;;6.30;99.90;;;;;;6087838;23;20400;-61
2022/12/21 01:38:12;;;;;;;21.33;9.67;;;6.30;99.90;;;;;;6088142;23;20418;-62
2022/12/21 01:40:39;;;;;;;25.67;10.73;;;6.30;99.90;;;;;;6092548;23;20408;-62
2022/12/21 01:43:16;;;;;;;17.13;10.10;;;6.30;99.90;;;;;;6119020;23;20455;-63
2022/12/21 01:45:52;;;;;;;18.23;9.70;;;6.30;99.90;;;;;;6122399;23;20430;-64
2022/12/21 01:48:20;;;;;;;28.50;10.30;;;6.30;99.90;;;;;;6121797;23;20387;-64
2022/12/21 01:50:56;;;;;;;14.93;9.00;;;6.30;99.90;;;;;;6122046;23;20432;-59
2022/12/21 01:53:30;;;;;;;26.57;10.40;;;6.40;99.90;;;;;;6121897;23;20411;-61
2022/12/21 01:56:00;;;;;;;21.63;11.23;;;6.40;99.90;;;;;;6122045;23;20451;-60
2022/12/21 01:58:29;;;;;;;21.33;10.47;;;6.40;99.90;;;;;;6121741;23;20403;-57
2022/12/21 02:00:58;;;;;;;25.50;11.60;;;6.40;99.90;;;;;;6120020;23;20503;-61
2022/12/21 02:03:30;;;;;;;21.40;11.97;;;6.40;99.90;;;;;;6120853;23;20427;-61
2022/12/21 02:06:02;;;;;;;19.43;10.50;;;6.40;99.90;;;;;;6121499;23;20372;-61
2022/12/21 02:08:31;;;;;;;25.87;10.33;;;6.40;99.90;;;;;;6121872;23;20427;-60
2022/12/21 02:10:59;;;;;;;30.77;11.33;;;6.40;99.90;;;;;;6122457;23;20407;-59
2022/12/21 02:13:29;;;;;;;22.47;10.80;;;6.30;99.90;;;;;;6122478;23;20431;-62
2022/12/21 02:16:16;;;;;;;24.80;10.13;;;6.30;99.90;;;;;;6122502;23;20404;-63
2022/12/21 02:19:09;;;;;;;19.60;10.73;;;6.30;99.90;;;;;;6122052;23;20427;-62
2022/12/21 02:21:41;;;;;;;31.90;13.30;;;6.20;99.90;;;;;;6123776;23;20444;-58
2022/12/21 02:24:42;;;;;;;19.50;10.80;;;6.20;99.90;;;;;;6123287;23;20435;-64
2022/12/21 02:27:30;;;;;;;24.73;12.37;;;6.20;99.90;;;;;;6123810;23;20420;-61
2022/12/21 02:30:11;;;;;;;21.43;10.73;;;6.20;99.90;;;;;;6123134;23;20427;-58
2022/12/21 02:32:58;;;;;;;23.83;11.83;;;6.10;99.90;;;;;;6123280;23;20368;-61
2022/12/21 02:35:37;;;;;;;17.50;10.30;;;6.10;99.90;;;;;;6123012;23;20434;-57
2022/12/21 02:38:17;;;;;;;20.90;10.10;;;6.10;99.90;;;;;;6121999;23;20400;-65
2022/12/21 02:40:55;;;;;;;23.13;11.67;;;6.10;99.90;;;;;;6121410;23;20427;-66
2022/12/21 02:46:22;;;;;;;21.90;11.50;;;6.10;99.90;;;;;;6095057;23;20451;-64
2022/12/21 02:48:58;;;;;;;33.27;12.23;;;6.00;99.90;;;;;;6094029;23;20419;-62
2022/12/21 02:51:32;;;;;;;31.00;9.10;;;6.00;99.90;;;;;;6092309;23;20393;-61
2022/12/21 02:54:00;;;;;;;22.57;10.37;;;6.00;99.90;;;;;;6092293;23;20407;-59
2022/12/21 02:56:27;;;;;;;22.53;11.40;;;6.00;99.90;;;;;;6092127;23;20415;-62
2022/12/21 02:58:54;;;;;;;18.30;10.07;;;6.00;99.90;;;;;;6091076;23;20412;-61
2022/12/21 03:01:38;;;;;;;19.83;11.63;;;6.00;99.90;;;;;;6092385;23;20439;-61
2022/12/21 03:04:29;;;;;;;24.23;11.00;;;6.00;99.90;;;;;;6092606;23;20420;-62
2022/12/21 03:07:16;;;;;;;20.03;11.43;;;5.90;99.90;;;;;;6091192;23;20392;-62
2022/12/21 03:09:55;;;;;;;16.50;9.00;;;5.90;99.90;;;;;;6092666;23;20428;-61
2022/12/21 03:12:30;;;;;;;25.40;12.07;;;5.90;99.90;;;;;;6093522;23;20409;-61
2022/12/21 03:15:06;;;;;;;22.93;12.07;;;5.90;99.90;;;;;;6093826;23;20435;-62
2022/12/21 03:17:43;;;;;;;20.90;13.67;;;5.90;99.90;;;;;;6092100;23;20423;-61
2022/12/21 03:20:18;;;;;;;26.10;11.73;;;5.90;99.90;;;;;;6092550;23;20432;-61
2022/12/21 03:22:51;;;;;;;21.17;10.87;;;5.80;99.90;;;;;;6091427;23;20531;-60
2022/12/21 03:25:23;;;;;;;17.47;10.07;;;5.90;99.90;;;;;;6092576;23;20495;-62
2022/12/21 03:27:55;;;;;;;32.73;13.90;;;5.90;99.90;;;;;;6092837;23;20465;-62
2022/12/21 03:30:23;;;;;;;25.03;11.77;;;5.90;99.90;;;;;;6091544;23;20392;-60
2022/12/21 03:32:59;;;;;;;22.40;11.47;;;5.90;99.90;;;;;;6091626;23;20385;-60
2022/12/21 03:35:30;;;;;;;27.40;12.13;;;5.90;99.90;;;;;;6092369;23;20424;-61
2022/12/21 03:38:01;;;;;;;29.03;11.70;;;6.00;99.90;;;;;;6092962;23;20392;-62
2022/12/21 03:40:31;;;;;;;24.83;10.50;;;6.00;99.90;;;;;;6092375;23;20558;-60
2022/12/21 03:43:03;;;;;;;18.60;9.90;;;6.00;99.90;;;;;;6116561;23;20451;-63
2022/12/21 03:45:32;;;;;;;20.10;11.20;;;6.00;99.90;;;;;;6122287;23;20395;-62
2022/12/21 03:48:06;;;;;;;22.60;10.87;;;6.00;99.90;;;;;;6121360;23;20431;-62
2022/12/21 03:50:38;;;;;;;27.10;12.50;;;6.00;99.90;;;;;;6121905;23;20391;-62
2022/12/21 03:53:10;;;;;;;30.40;12.43;;;6.00;99.90;;;;;;6121712;23;20415;-59
2022/12/21 03:55:41;;;;;;;27.37;11.90;;;6.00;99.90;;;;;;6120902;23;20384;-61
2022/12/21 03:58:11;;;;;;;26.67;10.40;;;6.00;99.90;;;;;;6121133;23;20407;-61
2022/12/21 04:00:44;;;;;;;20.93;11.57;;;6.00;99.90;;;;;;6121243;23;20391;-63
2022/12/21 04:03:18;;;;;;;21.47;10.67;;;6.00;99.90;;;;;;6120451;23;20452;-61
2022/12/21 04:05:54;;;;;;;25.80;12.77;;;6.10;99.90;;;;;;6119481;23;20471;-59
2022/12/21 04:08:23;;;;;;;24.97;11.53;;;6.10;99.90;;;;;;6119639;23;20387;-62
2022/12/21 04:10:50;;;;;;;22.90;10.87;;;6.00;99.90;;;;;;6119166;23;20431;-61
2022/12/21 04:13:16;;;;;;;27.27;10.60;;;6.10;99.90;;;;;;6120152;23;20576;-60
2022/12/21 04:21:18;;;;;;;22.87;11.07;;;6.20;99.90;;;;;;6119203;23;20396;-61
2022/12/21 04:29:14;;;;;;;19.93;11.07;;;6.10;99.90;;;;;;6120350;23;20375;-59
2022/12/21 04:31:41;;;;;;;30.30;11.93;;;6.20;99.90;;;;;;6120572;23;20392;-60
2022/12/21 04:34:08;;;;;;;27.13;12.87;;;6.20;99.90;;;;;;6120615;23;20383;-61
2022/12/21 04:39:20;;;;;;;21.70;10.53;;;6.20;99.90;;;;;;6121373;23;20410;-61
2022/12/21 04:41:47;;;;;;;20.53;9.77;;;6.20;99.90;;;;;;6122037;23;20443;-58
2022/12/21 04:44:17;;;;;;;22.77;10.83;;;6.20;99.90;;;;;;6122532;23;20451;-63
2022/12/21 04:46:44;;;;;;;25.00;11.40;;;6.20;99.90;;;;;;6121331;23;20399;-62
2022/12/21 04:49:10;;;;;;;21.03;11.97;;;6.30;99.90;;;;;;6122484;23;20546;-65
2022/12/21 04:51:41;;;;;;;19.07;9.60;;;6.30;99.90;;;;;;6121878;23;20384;-59
2022/12/21 04:54:08;;;;;;;24.63;12.63;;;6.30;99.90;;;;;;6119636;23;20812;-62
2022/12/21 04:56:35;;;;;;;19.87;9.47;;;6.30;99.90;;;;;;6120632;23;20419;-60
2022/12/21 04:59:03;;;;;;;28.10;13.27;;;6.30;99.90;;;;;;6119486;23;20408;-61
2022/12/21 05:01:30;;;;;;;23.60;10.47;;;6.30;99.90;;;;;;6120279;23;20431;-61
2022/12/21 05:03:58;;;;;;;22.77;10.20;;;6.30;99.90;;;;;;6120514;23;20434;-62
2022/12/21 05:06:28;;;;;;;21.60;11.27;;;6.30;99.90;;;;;;6121610;23;20431;-62
2022/12/21 05:08:58;;;;;;;19.00;10.47;;;6.30;99.90;;;;;;6122364;23;20395;-62
2022/12/21 05:11:28;;;;;;;21.87;10.93;;;6.30;99.90;;;;;;6122438;23;20452;-61
2022/12/21 05:13:55;;;;;;;17.87;11.57;;;6.30;99.90;;;;;;6121197;23;20423;-63
2022/12/21 05:16:24;;;;;;;22.83;10.77;;;6.40;99.90;;;;;;6113463;23;20434;-62
2022/12/21 05:18:56;;;;;;;23.30;10.20;;;6.40;99.90;;;;;;6117473;23;20468;-59
2022/12/21 05:21:23;;;;;;;24.97;12.40;;;6.40;99.90;;;;;;6120598;23;20391;-62
2022/12/21 05:23:50;;;;;;;19.90;10.90;;;6.40;99.90;;;;;;6120120;23;20447;-61
2022/12/21 05:26:18;;;;;;;26.80;10.37;;;6.50;99.90;;;;;;6121349;23;20403;-61
2022/12/21 05:28:52;;;;;;;18.47;10.63;;;6.50;99.90;;;;;;6121110;23;20428;-62
2022/12/21 05:31:19;;;;;;;16.07;10.20;;;6.50;99.90;;;;;;6121101;23;20392;-60
2022/12/21 05:33:46;;;;;;;30.63;12.10;;;6.50;99.90;;;;;;6120764;23;20407;-62
2022/12/21 05:36:16;;;;;;;29.23;11.10;;;6.50;99.90;;;;;;6120859;23;20393;-63
2022/12/21 05:38:44;;;;;;;24.97;10.87;;;6.50;99.90;;;;;;6121180;23;20395;-61
2022/12/21 05:41:12;;;;;;;27.50;11.20;;;6.50;99.90;;;;;;6121163;23;20428;-61
2022/12/21 05:43:40;;;;;;;20.87;12.27;;;6.50;99.90;;;;;;6121785;23;20419;-62
2022/12/21 05:46:09;;;;;;;25.77;12.60;;;6.50;99.90;;;;;;6122506;23;20431;-63
2022/12/21 05:48:37;;;;;;;24.60;12.87;;;6.50;99.90;;;;;;6124148;23;20407;-61
2022/12/21 05:51:07;;;;;;;23.97;10.97;;;6.50;99.90;;;;;;6123195;23;20423;-61
2022/12/21 05:53:34;;;;;;;24.40;12.83;;;6.60;99.90;;;;;;6122866;23;20384;-63
2022/12/21 05:56:01;;;;;;;20.23;10.20;;;6.60;99.90;;;;;;6122739;23;20663;-61
2022/12/21 05:58:28;;;;;;;27.87;12.60;;;6.60;99.90;;;;;;6123394;23;20422;-62
2022/12/21 06:01:03;;;;;;;23.53;10.70;;;6.60;99.90;;;;;;6124206;23;20404;-62
2022/12/21 06:03:30;;;;;;;23.30;11.67;;;6.60;99.90;;;;;;6123946;23;20434;-62
2022/12/21 06:06:08;;;;;;;23.20;11.57;;;6.60;99.90;;;;;;6123158;23;20478;-61
2022/12/21 06:08:35;;;;;;;23.33;11.23;;;6.60;99.90;;;;;;6123829;23;20399;-61
2022/12/21 06:11:08;;;;;;;18.43;10.33;;;6.60;99.90;;;;;;6124327;23;20427;-63
2022/12/21 06:13:35;;;;;;;25.53;10.90;;;6.70;99.90;;;;;;6124359;23;20388;-57
2022/12/21 06:16:06;;;;;;;30.53;11.20;;;6.70;99.90;;;;;;6124565;23;20423;-61
2022/12/21 06:18:35;;;;;;;28.77;12.20;;;6.70;99.90;;;;;;6124584;23;20388;-59
2022/12/21 06:21:02;;;;;;;22.27;9.73;;;6.80;99.90;;;;;;6124129;23;20407;-63
2022/12/21 06:23:29;;;;;;;20.80;11.57;;;6.80;99.90;;;;;;6122858;23;20439;-63
2022/12/21 06:25:57;;;;;;;20.33;10.80;;;6.80;99.90;;;;;;6123938;23;20403;-62
2022/12/21 06:28:25;;;;;;;28.30;13.73;;;6.80;99.90;;;;;;6123830;23;20431;-61
2022/12/21 06:30:52;;;;;;;24.40;11.50;;;6.90;99.90;;;;;;6123254;23;20455;-61
2022/12/21 06:33:22;;;;;;;24.60;13.60;;;6.90;99.90;;;;;;6122689;23;20404;-61
2022/12/21 06:35:54;;;;;;;22.00;10.67;;;6.90;99.90;;;;;;6123851;23;20392;-62
2022/12/21 06:38:25;;;;;;;26.00;12.80;;;6.90;99.90;;;;;;6124845;23;20450;-62
2022/12/21 06:40:56;;;;;;;24.00;10.60;;;6.90;99.90;;;;;;6124358;23;20408;-61
2022/12/21 06:43:23;;;;;;;21.27;12.80;;;7.00;99.90;;;;;;6123118;23;20447;-62
2022/12/21 06:45:55;;;;;;;24.63;12.07;;;7.00;99.90;;;;;;6123192;23;20402;-64
2022/12/21 06:48:23;;;;;;;21.13;10.83;;;7.10;99.90;;;;;;6121322;23;20432;-61
2022/12/21 06:50:55;;;;;;;19.50;11.20;;;7.10;99.90;;;;;;6124392;23;20403;-65
2022/12/21 06:53:23;;;;;;;25.30;12.63;;;7.10;99.90;;;;;;6118781;23;20423;-61
2022/12/21 06:55:50;;;;;;;22.83;11.50;;;7.10;99.90;;;;;;6121819;23;20407;-60
2022/12/21 06:58:17;;;;;;;22.23;11.40;;;7.10;99.90;;;;;;6122179;23;20442;-62
2022/12/21 07:00:44;;;;;;;21.00;9.10;;;7.10;99.90;;;;;;6122536;23;20419;-65
2022/12/21 07:03:10;;;;;;;21.73;11.37;;;7.30;99.90;;;;;;6122002;23;20455;-63
2022/12/21 07:05:40;;;;;;;34.00;12.33;;;7.80;99.90;;;;;;6121956;23;20400;-62
2022/12/21 07:08:10;;;;;;;22.37;11.50;;;7.80;99.90;;;;;;6122618;23;20457;-58
2022/12/21 07:10:39;;;;;;;26.27;13.80;;;7.70;99.90;;;;;;6122228;23;20391;-61
2022/12/21 07:13:06;;;;;;;20.93;12.50;;;7.60;99.90;;;;;;6122400;23;20424;-62
2022/12/21 07:15:33;;;;;;;26.33;14.90;;;7.50;99.90;;;;;;6122502;23;20403;-58
2022/12/21 07:18:03;;;;;;;18.73;11.63;;;7.50;99.90;;;;;;6122174;23;20403;-58
2022/12/21 07:20:29;;;;;;;21.07;11.77;;;7.40;99.90;;;;;;6122218;23;20447;-64
2022/12/21 07:22:58;;;;;;;21.23;11.77;;;7.40;99.90;;;;;;6122143;23;20403;-60
2022/12/21 07:25:25;;;;;;;22.10;11.33;;;7.40;99.90;;;;;;6122796;23;20403;-63
2022/12/21 07:27:52;;;;;;;27.17;13.80;;;7.30;99.90;;;;;;6123406;23;20431;-64
2022/12/21 07:30:19;;;;;;;25.13;11.53;;;7.30;99.90;;;;;;6123078;23;20410;-63
2022/12/21 07:32:45;;;;;;;21.10;11.17;;;7.30;99.90;;;;;;6123371;23;20404;-63
2022/12/21 07:35:12;;;;;;;26.63;10.67;;;7.30;99.90;;;;;;6124046;23;20391;-64
2022/12/21 07:37:39;;;;;;;31.97;13.90;;;7.30;99.90;;;;;;6125269;23;20410;-64
2022/12/21 07:40:09;;;;;;;26.80;11.53;;;7.30;99.90;;;;;;6125009;23;20426;-62
2022/12/21 07:42:36;;;;;;;20.20;11.20;;;7.30;99.90;;;;;;6125201;23;20399;-63
2022/12/21 07:45:05;;;;;;;24.13;12.53;;;7.30;99.90;;;;;;6116754;23;20458;-62
2022/12/21 07:47:32;;;;;;;20.40;11.83;;;7.30;99.90;;;;;;6124889;23;20410;-66
2022/12/21 07:49:59;;;;;;;27.37;12.93;;;7.30;99.90;;;;;;6124816;23;20428;-67
2022/12/21 07:52:26;;;;;;;23.07;10.33;;;7.30;99.90;;;;;;6125216;23;20408;-65
2022/12/21 07:54:53;;;;;;;20.07;11.83;;;7.30;99.90;;;;;;6125254;23;20411;-66
2022/12/21 07:57:21;;;;;;;23.10;11.70;;;7.30;99.90;;;;;;6124261;23;20403;-60
2022/12/21 07:59:48;;;;;;;16.87;11.60;;;7.40;99.90;;;;;;6123575;23;20432;-67
2022/12/21 08:02:15;;;;;;;21.17;11.63;;;7.40;99.90;;;;;;6123739;23;20435;-63
2022/12/21 08:04:42;;;;;;;21.67;11.00;;;7.40;99.90;;;;;;6124100;23;20443;-61
2022/12/21 08:07:09;;;;;;;25.63;9.90;;;7.40;99.90;;;;;;6123649;23;20412;-60
2022/12/21 08:09:36;;;;;;;27.63;14.10;;;7.40;99.90;;;;;;6123241;23;20435;-63
2022/12/21 08:12:03;;;;;;;26.77;12.53;;;7.50;99.90;;;;;;6123566;23;20406;-62
2022/12/21 08:14:32;;;;;;;20.97;12.50;;;7.40;99.90;;;;;;6122105;23;20431;-62
2022/12/21 08:16:59;;;;;;;22.23;13.70;;;7.50;99.90;;;;;;6121947;23;20418;-59
2022/12/21 08:19:26;;;;;;;29.83;14.60;;;7.50;99.90;;;;;;6121735;23;20408;-61
2022/12/21 08:21:53;;;;;;;27.47;14.33;;;7.50;99.90;;;;;;6121814;23;20471;-62
2022/12/21 08:24:20;;;;;;;23.17;13.20;;;7.50;99.90;;;;;;6122070;23;20448;-63
2022/12/21 08:26:47;;;;;;;21.83;12.60;;;7.50;99.90;;;;;;6121086;23;20391;-63
2022/12/21 08:29:14;;;;;;;26.60;13.30;;;7.50;99.90;;;;;;6121663;23;20407;-61
2022/12/21 08:31:42;;;;;;;17.33;11.30;;;7.60;99.90;;;;;;6122065;23;20376;-63
2022/12/21 08:34:09;;;;;;;26.07;11.83;;;7.60;99.90;;;;;;6122066;23;20408;-63
2022/12/21 08:36:36;;;;;;;20.90;11.33;;;7.60;99.90;;;;;;6121624;23;20384;-63
2022/12/21 08:39:03;;;;;;;23.30;13.20;;;7.50;99.90;;;;;;6121709;23;20407;-60
2022/12/21 08:41:30;;;;;;;19.13;12.50;;;7.50;99.90;;;;;;6121447;23;20399;-61
2022/12/21 08:43:57;;;;;;;18.70;10.27;;;7.50;99.90;;;;;;6122539;23;20438;-64
2022/12/21 08:46:24;;;;;;;23.13;11.17;;;7.50;99.90;;;;;;6122745;23;20459;-67
2022/12/21 08:48:52;;;;;;;23.57;11.87;;;7.50;99.90;;;;;;6123007;23;20407;-63
2022/12/21 08:51:21;;;;;;;22.07;12.27;;;7.50;99.90;;;;;;6122501;23;20399;-64
2022/12/21 08:53:48;;;;;;;23.07;11.20;;;7.50;99.90;;;;;;6122824;23;20468;-63
2022/12/21 08:56:19;;;;;;;19.40;10.77;;;7.50;99.90;;;;;;6122468;23;20428;-66
2022/12/21 08:58:46;;;;;;;22.37;11.77;;;7.50;99.90;;;;;;6122476;23;20415;-64
2022/12/21 09:01:17;;;;;;;17.73;10.20;;;7.50;99.90;;;;;;6122732;23;20424;-62
2022/12/21 09:03:45;;;;;;;21.10;10.47;;;7.60;99.90;;;;;;6122326;23;20479;-64
2022/12/21 09:06:14;;;;;;;25.03;12.93;;;7.60;99.90;;;;;;6122486;23;20427;-63
2022/12/21 09:08:41;;;;;;;23.43;12.07;;;7.70;99.90;;;;;;6121545;23;20414;-64
2022/12/21 09:11:16;;;;;;;21.17;10.83;;;7.70;99.90;;;;;;6121255;23;20438;-60
2022/12/21 09:13:43;;;;;;;18.30;10.33;;;7.50;99.90;;;;;;6120941;23;20379;-63
2022/12/21 09:16:13;;;;;;;18.13;11.70;;;7.80;99.90;;;;;;6121478;23;20431;-62
2022/12/21 09:18:40;;;;;;;21.23;11.70;;;7.90;99.90;;;;;;6120810;23;20399;-63
2022/12/21 09:21:07;;;;;;;21.90;10.30;;;8.00;99.90;;;;;;6120428;23;20434;-64
2022/12/21 09:23:36;;;;;;;26.87;12.67;;;8.00;99.90;;;;;;6121210;23;20408;-61
2022/12/21 09:26:05;;;;;;;23.37;10.97;;;8.00;99.90;;;;;;6121126;23;20442;-63
2022/12/21 09:28:32;;;;;;;20.40;11.00;;;8.00;99.90;;;;;;6120438;23;20416;-61
2022/12/21 09:31:08;;;;;;;17.67;11.37;;;8.00;99.90;;;;;;6121242;23;20415;-62
2022/12/21 09:33:35;;;;;;;19.50;10.37;;;8.10;99.90;;;;;;6121550;23;20415;-69
2022/12/21 09:36:02;;;;;;;26.13;11.10;;;8.10;99.90;;;;;;6122267;23;20416;-65
2022/12/21 09:38:30;;;;;;;18.60;11.83;;;8.20;99.90;;;;;;6121553;23;20408;-61
2022/12/21 09:41:03;;;;;;;20.63;10.80;;;8.10;99.90;;;;;;6120181;23;20424;-60
2022/12/21 09:43:41;;;;;;;25.33;11.00;;;8.10;99.90;;;;;;6120624;23;20368;-61
2022/12/21 09:46:11;;;;;;;20.23;10.93;;;8.10;99.90;;;;;;6121048;23;20427;-62
2022/12/21 09:48:41;;;;;;;21.20;11.30;;;8.10;99.90;;;;;;6121290;23;20418;-63
2022/12/21 09:51:16;;;;;;;20.73;12.40;;;8.10;99.90;;;;;;6120566;23;20468;-61
2022/12/21 09:53:48;;;;;;;20.10;10.63;;;8.10;99.90;;;;;;6120780;23;20398;-62
2022/12/21 09:56:26;;;;;;;25.73;10.97;;;8.10;99.90;;;;;;6121292;23;20412;-59
2022/12/21 09:58:55;;;;;;;21.37;12.20;;;8.20;99.90;;;;;;6120747;23;20406;-63
2022/12/21 10:01:33;;;;;;;15.70;9.23;;;8.20;99.90;;;;;;6120873;23;20415;-60
2022/12/21 10:04:18;;;;;;;20.80;11.03;;;8.20;99.90;;;;;;6120729;23;20483;-62
2022/12/21 10:07:03;;;;;;;17.17;10.10;;;8.20;99.90;;;;;;6120635;23;20435;-61
2022/12/21 10:09:50;;;;;;;18.73;11.23;;;8.20;99.90;;;;;;6115739;23;20833;-60
2022/12/21 10:12:30;;;;;;;16.17;9.70;;;8.20;99.90;;;;;;6119061;23;20479;-59
2022/12/21 10:15:10;;;;;;;24.30;9.90;;;8.30;99.90;;;;;;6121726;23;20384;-62
2022/12/21 10:17:50;;;;;;;19.87;12.20;;;8.30;99.90;;;;;;6121103;23;20438;-66
2022/12/21 10:20:31;;;;;;;17.80;10.03;;;8.30;99.90;;;;;;6121744;23;20379;-62
2022/12/21 10:23:02;;;;;;;19.30;10.30;;;8.30;99.90;;;;;;6121281;23;20443;-62
2022/12/21 10:25:41;;;;;;;17.73;10.00;;;8.30;99.90;;;;;;6120265;23;20424;-61
2022/12/21 10:28:26;;;;;;;20.70;11.23;;;8.30;99.90;;;;;;6120188;23;20388;-61
2022/12/21 10:31:00;;;;;;;21.97;11.10;;;8.40;99.90;;;;;;6122111;23;20411;-63
2022/12/21 10:33:27;;;;;;;27.97;13.80;;;8.40;99.90;;;;;;6123064;23;20419;-62
2022/12/21 10:35:59;;;;;;;19.33;10.93;;;8.50;99.90;;;;;;6122159;23;20411;-62
2022/12/21 10:38:32;;;;;;;21.77;13.43;;;8.60;99.90;;;;;;6114465;23;20454;-62
2022/12/21 10:41:00;;;;;;;16.97;9.63;;;8.60;99.90;;;;;;6122366;23;20396;-60
2022/12/21 10:43:32;;;;;;;27.07;10.63;;;8.50;99.90;;;;;;6122558;23;20407;-63
2022/12/21 10:45:59;;;;;;;17.50;9.53;;;8.50;99.90;;;;;;6123197;23;20438;-64
2022/12/21 10:48:30;;;;;;;20.87;11.23;;;8.60;99.90;;;;;;6123430;23;20396;-60
2022/12/21 10:51:06;;;;;;;16.17;9.87;;;8.60;99.90;;;;;;6124258;23;20388;-61
2022/12/21 10:53:34;;;;;;;21.90;11.27;;;8.60;99.90;;;;;;6123710;23;20364;-63
2022/12/21 10:56:01;;;;;;;20.20;11.80;;;8.60;99.90;;;;;;6123905;23;20388;-62
2022/12/21 10:58:32;;;;;;;22.27;11.47;;;8.60;99.90;;;;;;6119781;23;20436;-63
2022/12/21 11:01:02;;;;;;;19.47;11.50;;;8.60;99.90;;;;;;6115299;23;20396;-62
2022/12/21 11:03:31;;;;;;;18.33;11.47;;;8.60;99.90;;;;;;6122079;23;20427;-62
2022/12/21 11:05:59;;;;;;;21.57;13.50;;;8.60;99.90;;;;;;6122056;23;20471;-60
2022/12/21 11:08:29;;;;;;;18.90;12.50;;;8.70;99.90;;;;;;6122656;23;20466;-62
2022/12/21 11:10:58;;;;;;;18.20;10.90;;;8.70;99.90;;;;;;6123504;23;20403;-62
2022/12/21 11:13:27;;;;;;;24.73;11.80;;;8.70;99.90;;;;;;6122485;23;20428;-63
2022/12/21 11:16:02;;;;;;;19.93;10.37;;;8.60;99.90;;;;;;6121813;23;20400;-62
2022/12/21 11:18:40;;;;;;;19.80;11.60;;;8.70;99.90;;;;;;6121753;23;20463;-62
2022/12/21 11:21:20;;;;;;;19.97;12.00;;;8.60;99.90;;;;;;6121810;23;20388;-64
2022/12/21 11:24:00;;;;;;;16.40;12.10;;;8.60;99.90;;;;;;6121935;23;20436;-62
2022/12/21 11:26:31;;;;;;;22.23;10.93;;;8.70;99.90;;;;;;6121884;23;20391;-58
2022/12/21 11:29:03;;;;;;;16.90;10.47;;;8.70;99.90;;;;;;6121565;23;20436;-63
2022/12/21 11:31:32;;;;;;;22.43;12.40;;;8.70;99.90;;;;;;6122497;23;20415;-63
2022/12/21 11:33:59;;;;;;;18.63;11.00;;;8.70;99.90;;;;;;6123255;23;20427;-71
2022/12/21 11:36:27;;;;;;;17.43;10.50;;;8.70;99.90;;;;;;6122866;23;20415;-63
2022/12/21 11:38:54;;;;;;;17.47;9.90;;;8.80;99.90;;;;;;6121970;23;20431;-63
2022/12/21 11:41:26;;;;;;;18.60;10.70;;;8.80;99.90;;;;;;6121536;23;20400;-62
2022/12/21 11:43:54;;;;;;;18.70;10.63;;;8.80;99.90;;;;;;6121415;23;20514;-60
2022/12/21 11:46:53;;;;;;;19.93;11.10;;;8.90;99.90;;;;;;6121500;23;20431;-61
2022/12/21 11:49:52;;;;;;;14.97;9.17;;;8.90;99.90;;;;;;6059022;23;20427;-61
2022/12/21 11:52:32;;;;;;;16.40;11.30;;;8.90;99.90;;;;;;6074021;23;20399;-62
2022/12/21 11:55:07;;;;;;;15.77;9.93;;;8.90;99.90;;;;;;6121964;23;20394;-62
2022/12/21 11:57:46;;;;;;;16.60;11.07;;;8.90;99.90;;;;;;6122388;23;20387;-61
2022/12/21 12:00:18;;;;;;;16.27;10.90;;;8.90;99.90;;;;;;6121317;23;20451;-62
2022/12/21 12:03:24;;;;;;;16.83;10.40;;;8.90;99.90;;;;;;6115350;23;20388;-60
2022/12/21 12:06:12;;;;;;;14.77;9.73;;;8.90;99.90;;;;;;6088186;23;20455;-61
2022/12/21 12:08:55;;;;;;;18.60;11.50;;;8.90;99.90;;;;;;6121366;23;20419;-63
2022/12/21 12:11:33;;;;;;;16.87;9.37;;;8.90;99.90;;;;;;6122337;23;20403;-59
2022/12/21 12:14:17;;;;;;;18.00;8.60;;;8.90;99.90;;;;;;6121704;23;20433;-63
2022/12/21 12:16:59;;;;;;;14.80;9.93;;;8.90;99.90;;;;;;6115398;23;20400;-62
2022/12/21 12:19:33;;;;;;;20.27;11.20;;;8.80;99.90;;;;;;6121799;23;20423;-63
2022/12/21 12:22:15;;;;;;;16.87;9.87;;;8.80;99.90;;;;;;6121820;23;20387;-62
2022/12/21 12:25:07;;;;;;;14.83;10.17;;;8.80;99.90;;;;;;6122577;23;20442;-60
2022/12/21 12:27:51;;;;;;;26.70;11.20;;;8.80;99.90;;;;;;6122329;23;20407;-63
2022/12/21 12:30:21;;;;;;;17.97;10.43;;;8.80;99.90;;;;;;6123102;23;20392;-61
2022/12/21 12:33:00;;;;;;;28.57;16.60;;;8.80;99.90;;;;;;6121783;23;20412;-61
2022/12/21 12:35:52;;;;;;;20.73;10.57;;;8.90;99.90;;;;;;6121411;23;20392;-63
2022/12/21 12:38:26;;;;;;;22.40;11.37;;;8.90;99.90;;;;;;6121213;23;20399;-61
2022/12/21 12:41:09;;;;;;;34.43;17.20;;;8.90;99.90;;;;;;6121874;23;20392;-61
2022/12/21 12:43:48;;;;;;;25.23;12.50;;;8.90;99.90;;;;;;6120911;23;20392;-59
2022/12/21 12:46:25;;;;;;;17.67;10.23;;;9.00;99.90;;;;;;6120859;23;20423;-59
2022/12/21 12:49:01;;;;;;;25.57;13.97;;;8.80;99.90;;;;;;6121758;23;20396;-61
2022/12/21 12:51:34;;;;;;;14.57;10.57;;;8.90;99.90;;;;;;6121376;23;20408;-62
2022/12/21 12:54:10;;;;;;;26.73;15.37;;;9.00;99.90;;;;;;6121599;23;20418;-59
2022/12/21 12:56:43;;;;;;;16.10;10.23;;;9.00;99.90;;;;;;6121562;23;20431;-66
2022/12/21 12:59:18;;;;;;;17.67;10.63;;;9.00;99.90;;;;;;6121207;23;20423;-63
2022/12/21 13:01:51;;;;;;;21.90;11.37;;;9.00;99.90;;;;;;6116121;23;20491;-63
2022/12/21 13:04:48;;;;;;;14.43;10.07;;;9.00;99.90;;;;;;6121512;23;20383;-63
2022/12/21 13:07:24;;;;;;;17.53;10.20;;;9.00;99.90;;;;;;6121099;23;20399;-63
2022/12/21 13:10:02;;;;;;;17.90;11.30;;;9.00;99.90;;;;;;6122278;23;20387;-61
2022/12/21 13:12:36;;;;;;;18.03;8.53;;;9.00;99.90;;;;;;6122561;23;20387;-62
2022/12/21 13:15:11;;;;;;;12.97;9.10;;;9.00;99.90;;;;;;6120689;23;20382;-62
2022/12/21 13:17:42;;;;;;;16.43;10.23;;;9.00;99.90;;;;;;6120526;23;20423;-59